sensor_id;sensor_type;location;lat;lon;timestamp;P1;durP1;ratioP1;P2;durP2;ratioP2
12171;SDS011;6149;52.418;13.668;2022-12-07T00:01:19;18.37;;;10.17;;
12171;SDS011;6149;52.418;13.668;2022-12-07T00:03:48;19.87;;;10.47;;
12171;SDS011;6149;52.418;13.668;2022-12-07T00:06:18;17.50;;;10.83;;
12171;SDS011;6149;52.418;13.668;2022-12-07T00:08:47;17.90;;;10.03;;
12171;SDS011;6149;52.418;13.668;2022-12-07T00:11:15;19.90;;;10.80;;
12171;SDS011;6149;52.418;13.668;2022-12-07T00:13:44;18.43;;;10.23;;
12171;SDS011;6149;52.418;13.668;2022-12-07T00:16:12;16.93;;;9.83;;
12171;SDS011;6149;52.418;13.668;2022-12-07T00:18:41;21.47;;;10.63;;
12171;SDS011;6149;52.418;13.668;2022-12-07T00:21:09;19.80;;;10.40;;
12171;SDS011;6149;52.418;13.668;2022-12-07T00:23:37;18.30;;;10.47;;
12171;SDS011;6149;52.418;13.668;2022-12-07T00:26:07;19.20;;;10.30;;
12171;SDS011;6149;52.418;13.668;2022-12-07T00:28:36;21.70;;;10.00;;
12171;SDS011;6149;52.418;13.668;2022-12-07T00:31:04;19.77;;;10.83;;
12171;SDS011;6149;52.418;13.668;2022-12-07T00:33:34;20.93;;;12.10;;
12171;SDS011;6149;52.418;13.668;2022-12-07T00:36:02;18.77;;;10.67;;
12171;SDS011;6149;52.418;13.668;2022-12-07T00:38:32;22.17;;;11.47;;
12171;SDS011;6149;52.418;13.668;2022-12-07T00:41:01;21.23;;;11.60;;
12171;SDS011;6149;52.418;13.668;2022-12-07T00:43:32;21.73;;;11.50;;
12171;SDS011;6149;52.418;13.668;2022-12-07T00:45:58;21.80;;;12.03;;
12171;SDS011;6149;52.418;13.668;2022-12-07T00:48:25;21.90;;;11.50;;
12171;SDS011;6149;52.418;13.668;2022-12-07T00:50:52;21.23;;;11.43;;
12171;SDS011;6149;52.418;13.668;2022-12-07T00:53:19;19.07;;;11.40;;
12171;SDS011;6149;52.418;13.668;2022-12-07T00:55:46;19.63;;;11.73;;
12171;SDS011;6149;52.418;13.668;2022-12-07T00:58:12;17.67;;;11.30;;
12171;SDS011;6149;52.418;13.668;2022-12-07T01:00:41;17.73;;;10.87;;
12171;SDS011;6149;52.418;13.668;2022-12-07T01:03:10;17.20;;;10.47;;
12171;SDS011;6149;52.418;13.668;2022-12-07T01:05:38;16.33;;;9.80;;
12171;SDS011;6149;52.418;13.668;2022-12-07T01:08:08;16.27;;;9.87;;
12171;SDS011;6149;52.418;13.668;2022-12-07T01:10:34;15.63;;;9.97;;
12171;SDS011;6149;52.418;13.668;2022-12-07T01:13:01;15.20;;;10.00;;
12171;SDS011;6149;52.418;13.668;2022-12-07T01:15:27;16.07;;;9.73;;
12171;SDS011;6149;52.418;13.668;2022-12-07T01:17:55;15.57;;;9.60;;
12171;SDS011;6149;52.418;13.668;2022-12-07T01:20:22;14.77;;;9.50;;
12171;SDS011;6149;52.418;13.668;2022-12-07T01:22:49;15.00;;;10.27;;
12171;SDS011;6149;52.418;13.668;2022-12-07T01:25:15;12.57;;;9.10;;
12171;SDS011;6149;52.418;13.668;2022-12-07T01:27:42;13.47;;;9.10;;
12171;SDS011;6149;52.418;13.668;2022-12-07T01:30:09;12.50;;;8.67;;
12171;SDS011;6149;52.418;13.668;2022-12-07T01:32:38;11.80;;;8.37;;
12171;SDS011;6149;52.418;13.668;2022-12-07T01:35:06;11.83;;;8.27;;
12171;SDS011;6149;52.418;13.668;2022-12-07T01:37:34;10.87;;;7.87;;
12171;SDS011;6149;52.418;13.668;2022-12-07T01:40:02;12.47;;;8.20;;
12171;SDS011;6149;52.418;13.668;2022-12-07T01:42:30;11.87;;;8.07;;
12171;SDS011;6149;52.418;13.668;2022-12-07T01:48:10;12.73;;;8.13;;
12171;SDS011;6149;52.418;13.668;2022-12-07T01:50:41;10.87;;;7.73;;
12171;SDS011;6149;52.418;13.668;2022-12-07T01:53:10;11.17;;;8.10;;
12171;SDS011;6149;52.418;13.668;2022-12-07T01:55:40;12.83;;;8.17;;
12171;SDS011;6149;52.418;13.668;2022-12-07T01:58:10;12.30;;;8.60;;
12171;SDS011;6149;52.418;13.668;2022-12-07T02:00:38;12.53;;;8.30;;
12171;SDS011;6149;52.418;13.668;2022-12-07T02:03:06;11.93;;;7.83;;
12171;SDS011;6149;52.418;13.668;2022-12-07T02:05:38;13.30;;;8.70;;
12171;SDS011;6149;52.418;13.668;2022-12-07T02:08:08;12.83;;;7.67;;
12171;SDS011;6149;52.418;13.668;2022-12-07T02:10:37;14.20;;;8.90;;
12171;SDS011;6149;52.418;13.668;2022-12-07T02:13:04;11.40;;;8.20;;
12171;SDS011;6149;52.418;13.668;2022-12-07T02:15:38;12.17;;;8.13;;
12171;SDS011;6149;52.418;13.668;2022-12-07T02:18:29;13.40;;;8.70;;
12171;SDS011;6149;52.418;13.668;2022-12-07T02:21:11;12.90;;;8.67;;
12171;SDS011;6149;52.418;13.668;2022-12-07T02:23:53;14.43;;;9.03;;
12171;SDS011;6149;52.418;13.668;2022-12-07T02:29:44;11.40;;;7.73;;
12171;SDS011;6149;52.418;13.668;2022-12-07T02:32:16;11.27;;;7.70;;
12171;SDS011;6149;52.418;13.668;2022-12-07T02:34:49;11.50;;;7.87;;
12171;SDS011;6149;52.418;13.668;2022-12-07T02:37:27;12.17;;;8.00;;
12171;SDS011;6149;52.418;13.668;2022-12-07T02:40:18;12.33;;;7.80;;
12171;SDS011;6149;52.418;13.668;2022-12-07T02:42:50;12.33;;;7.90;;
12171;SDS011;6149;52.418;13.668;2022-12-07T02:45:25;11.57;;;7.73;;
12171;SDS011;6149;52.418;13.668;2022-12-07T02:47:56;11.20;;;7.50;;
12171;SDS011;6149;52.418;13.668;2022-12-07T02:50:25;10.90;;;7.90;;
12171;SDS011;6149;52.418;13.668;2022-12-07T02:52:53;10.70;;;7.93;;
12171;SDS011;6149;52.418;13.668;2022-12-07T02:55:20;11.50;;;7.90;;
12171;SDS011;6149;52.418;13.668;2022-12-07T02:57:55;11.07;;;7.63;;
12171;SDS011;6149;52.418;13.668;2022-12-07T03:00:46;11.47;;;8.03;;
12171;SDS011;6149;52.418;13.668;2022-12-07T03:03:22;11.40;;;8.17;;
12171;SDS011;6149;52.418;13.668;2022-12-07T03:05:57;11.47;;;7.77;;
12171;SDS011;6149;52.418;13.668;2022-12-07T03:08:39;12.13;;;7.87;;
12171;SDS011;6149;52.418;13.668;2022-12-07T03:11:15;9.57;;;7.10;;
12171;SDS011;6149;52.418;13.668;2022-12-07T03:13:51;10.43;;;7.30;;
12171;SDS011;6149;52.418;13.668;2022-12-07T03:16:27;10.77;;;7.50;;
12171;SDS011;6149;52.418;13.668;2022-12-07T03:19:01;9.33;;;7.53;;
12171;SDS011;6149;52.418;13.668;2022-12-07T03:21:33;10.17;;;7.17;;
12171;SDS011;6149;52.418;13.668;2022-12-07T03:24:04;10.70;;;7.13;;
12171;SDS011;6149;52.418;13.668;2022-12-07T03:26:35;11.40;;;7.97;;
12171;SDS011;6149;52.418;13.668;2022-12-07T03:29:07;10.43;;;7.40;;
12171;SDS011;6149;52.418;13.668;2022-12-07T03:31:43;12.03;;;7.73;;
12171;SDS011;6149;52.418;13.668;2022-12-07T03:34:16;9.43;;;7.33;;
12171;SDS011;6149;52.418;13.668;2022-12-07T03:36:54;9.60;;;7.20;;
12171;SDS011;6149;52.418;13.668;2022-12-07T03:39:27;11.67;;;7.50;;
12171;SDS011;6149;52.418;13.668;2022-12-07T03:42:00;10.97;;;6.67;;
12171;SDS011;6149;52.418;13.668;2022-12-07T03:44:30;11.17;;;7.47;;
12171;SDS011;6149;52.418;13.668;2022-12-07T03:47:00;11.87;;;7.17;;
12171;SDS011;6149;52.418;13.668;2022-12-07T03:49:30;10.43;;;7.23;;
12171;SDS011;6149;52.418;13.668;2022-12-07T03:52:07;9.97;;;7.10;;
12171;SDS011;6149;52.418;13.668;2022-12-07T03:54:41;10.30;;;7.03;;
12171;SDS011;6149;52.418;13.668;2022-12-07T03:57:15;13.10;;;7.37;;
12171;SDS011;6149;52.418;13.668;2022-12-07T03:59:43;11.50;;;7.27;;
12171;SDS011;6149;52.418;13.668;2022-12-07T04:02:13;13.03;;;7.30;;
12171;SDS011;6149;52.418;13.668;2022-12-07T04:04:40;12.80;;;8.23;;
12171;SDS011;6149;52.418;13.668;2022-12-07T04:07:08;14.00;;;8.90;;
12171;SDS011;6149;52.418;13.668;2022-12-07T04:09:36;14.07;;;8.60;;
12171;SDS011;6149;52.418;13.668;2022-12-07T04:12:03;17.93;;;9.87;;
12171;SDS011;6149;52.418;13.668;2022-12-07T04:14:30;18.43;;;9.93;;
12171;SDS011;6149;52.418;13.668;2022-12-07T04:16:57;14.27;;;9.13;;
12171;SDS011;6149;52.418;13.668;2022-12-07T04:19:27;16.43;;;10.03;;
12171;SDS011;6149;52.418;13.668;2022-12-07T04:21:56;18.67;;;10.33;;
12171;SDS011;6149;52.418;13.668;2022-12-07T04:24:24;16.20;;;9.90;;
12171;SDS011;6149;52.418;13.668;2022-12-07T04:26:52;17.90;;;10.00;;
12171;SDS011;6149;52.418;13.668;2022-12-07T04:29:19;17.10;;;10.20;;
12171;SDS011;6149;52.418;13.668;2022-12-07T04:31:46;18.77;;;10.93;;
12171;SDS011;6149;52.418;13.668;2022-12-07T04:34:13;17.80;;;10.77;;
12171;SDS011;6149;52.418;13.668;2022-12-07T04:36:42;23.60;;;11.43;;
12171;SDS011;6149;52.418;13.668;2022-12-07T04:39:13;22.27;;;11.57;;
12171;SDS011;6149;52.418;13.668;2022-12-07T04:41:46;18.70;;;10.83;;
12171;SDS011;6149;52.418;13.668;2022-12-07T04:44:13;19.10;;;11.13;;
12171;SDS011;6149;52.418;13.668;2022-12-07T04:46:41;19.63;;;11.80;;
12171;SDS011;6149;52.418;13.668;2022-12-07T04:49:09;19.47;;;11.97;;
12171;SDS011;6149;52.418;13.668;2022-12-07T04:51:36;24.10;;;12.43;;
12171;SDS011;6149;52.418;13.668;2022-12-07T04:54:04;19.13;;;11.83;;
12171;SDS011;6149;52.418;13.668;2022-12-07T04:56:30;21.77;;;12.60;;
12171;SDS011;6149;52.418;13.668;2022-12-07T04:58:58;25.07;;;13.53;;
12171;SDS011;6149;52.418;13.668;2022-12-07T05:01:24;22.67;;;12.47;;
12171;SDS011;6149;52.418;13.668;2022-12-07T05:03:51;22.43;;;13.47;;
12171;SDS011;6149;52.418;13.668;2022-12-07T05:06:18;25.77;;;13.93;;
12171;SDS011;6149;52.418;13.668;2022-12-07T05:08:45;24.70;;;13.87;;
12171;SDS011;6149;52.418;13.668;2022-12-07T05:11:13;26.13;;;13.40;;
12171;SDS011;6149;52.418;13.668;2022-12-07T05:14:01;23.27;;;12.37;;
12171;SDS011;6149;52.418;13.668;2022-12-07T05:16:28;24.90;;;14.47;;
12171;SDS011;6149;52.418;13.668;2022-12-07T05:18:55;25.57;;;14.27;;
12171;SDS011;6149;52.418;13.668;2022-12-07T05:21:22;28.50;;;14.13;;
12171;SDS011;6149;52.418;13.668;2022-12-07T05:23:49;27.47;;;15.00;;
12171;SDS011;6149;52.418;13.668;2022-12-07T05:26:18;29.63;;;15.73;;
12171;SDS011;6149;52.418;13.668;2022-12-07T05:28:44;30.27;;;15.30;;
12171;SDS011;6149;52.418;13.668;2022-12-07T05:31:11;30.13;;;16.47;;
12171;SDS011;6149;52.418;13.668;2022-12-07T05:33:38;32.13;;;16.50;;
12171;SDS011;6149;52.418;13.668;2022-12-07T05:36:05;31.60;;;16.90;;
12171;SDS011;6149;52.418;13.668;2022-12-07T05:38:33;35.10;;;17.23;;
12171;SDS011;6149;52.418;13.668;2022-12-07T05:41:00;33.50;;;17.13;;
12171;SDS011;6149;52.418;13.668;2022-12-07T05:43:29;35.33;;;18.80;;
12171;SDS011;6149;52.418;13.668;2022-12-07T05:45:57;36.83;;;18.63;;
12171;SDS011;6149;52.418;13.668;2022-12-07T05:48:24;41.23;;;18.00;;
12171;SDS011;6149;52.418;13.668;2022-12-07T05:50:51;37.93;;;18.30;;
12171;SDS011;6149;52.418;13.668;2022-12-07T05:53:18;38.27;;;18.53;;
12171;SDS011;6149;52.418;13.668;2022-12-07T05:55:45;33.50;;;17.33;;
12171;SDS011;6149;52.418;13.668;2022-12-07T05:58:12;37.20;;;18.50;;
12171;SDS011;6149;52.418;13.668;2022-12-07T06:00:57;40.17;;;19.53;;
12171;SDS011;6149;52.418;13.668;2022-12-07T06:03:24;38.33;;;19.80;;
12171;SDS011;6149;52.418;13.668;2022-12-07T06:05:51;43.00;;;20.27;;
12171;SDS011;6149;52.418;13.668;2022-12-07T06:08:18;42.80;;;20.07;;
12171;SDS011;6149;52.418;13.668;2022-12-07T06:10:46;41.67;;;20.73;;
12171;SDS011;6149;52.418;13.668;2022-12-07T06:13:35;46.83;;;21.13;;
12171;SDS011;6149;52.418;13.668;2022-12-07T06:16:02;42.03;;;19.90;;
12171;SDS011;6149;52.418;13.668;2022-12-07T06:18:29;43.67;;;21.17;;
12171;SDS011;6149;52.418;13.668;2022-12-07T06:20:56;44.70;;;21.17;;
12171;SDS011;6149;52.418;13.668;2022-12-07T06:23:23;45.97;;;21.73;;
12171;SDS011;6149;52.418;13.668;2022-12-07T06:25:49;45.93;;;21.47;;
12171;SDS011;6149;52.418;13.668;2022-12-07T06:28:16;46.93;;;21.80;;
12171;SDS011;6149;52.418;13.668;2022-12-07T06:30:42;48.63;;;23.17;;
12171;SDS011;6149;52.418;13.668;2022-12-07T06:33:10;53.47;;;24.17;;
12171;SDS011;6149;52.418;13.668;2022-12-07T06:35:37;49.33;;;22.90;;
12171;SDS011;6149;52.418;13.668;2022-12-07T06:38:04;56.97;;;24.47;;
12171;SDS011;6149;52.418;13.668;2022-12-07T06:40:30;50.73;;;23.83;;
12171;SDS011;6149;52.418;13.668;2022-12-07T06:42:57;50.27;;;22.87;;
12171;SDS011;6149;52.418;13.668;2022-12-07T06:45:23;43.33;;;22.20;;
12171;SDS011;6149;52.418;13.668;2022-12-07T06:47:50;49.37;;;23.67;;
12171;SDS011;6149;52.418;13.668;2022-12-07T06:50:18;54.17;;;24.87;;
12171;SDS011;6149;52.418;13.668;2022-12-07T06:52:45;52.20;;;23.93;;
12171;SDS011;6149;52.418;13.668;2022-12-07T06:55:11;54.73;;;24.60;;
12171;SDS011;6149;52.418;13.668;2022-12-07T06:57:38;53.63;;;23.53;;
12171;SDS011;6149;52.418;13.668;2022-12-07T07:00:05;56.07;;;25.43;;
12171;SDS011;6149;52.418;13.668;2022-12-07T07:02:34;52.67;;;23.70;;
12171;SDS011;6149;52.418;13.668;2022-12-07T07:05:01;55.10;;;23.60;;
12171;SDS011;6149;52.418;13.668;2022-12-07T07:07:29;52.47;;;23.87;;
12171;SDS011;6149;52.418;13.668;2022-12-07T07:09:56;51.10;;;23.43;;
12171;SDS011;6149;52.418;13.668;2022-12-07T07:12:23;56.03;;;24.63;;
12171;SDS011;6149;52.418;13.668;2022-12-07T07:14:49;57.07;;;24.03;;
12171;SDS011;6149;52.418;13.668;2022-12-07T07:17:16;49.10;;;25.30;;
12171;SDS011;6149;52.418;13.668;2022-12-07T07:19:42;52.00;;;24.97;;
12171;SDS011;6149;52.418;13.668;2022-12-07T07:22:09;53.03;;;23.73;;
12171;SDS011;6149;52.418;13.668;2022-12-07T07:24:37;50.63;;;23.37;;
12171;SDS011;6149;52.418;13.668;2022-12-07T07:27:03;54.37;;;25.03;;
12171;SDS011;6149;52.418;13.668;2022-12-07T07:29:30;55.47;;;26.73;;
12171;SDS011;6149;52.418;13.668;2022-12-07T07:31:57;56.83;;;25.07;;
12171;SDS011;6149;52.418;13.668;2022-12-07T07:34:24;50.63;;;23.90;;
12171;SDS011;6149;52.418;13.668;2022-12-07T07:36:50;55.60;;;24.33;;
12171;SDS011;6149;52.418;13.668;2022-12-07T07:39:17;59.97;;;24.77;;
12171;SDS011;6149;52.418;13.668;2022-12-07T07:41:45;53.83;;;24.07;;
12171;SDS011;6149;52.418;13.668;2022-12-07T07:44:13;52.80;;;25.00;;
12171;SDS011;6149;52.418;13.668;2022-12-07T07:46:41;51.70;;;25.63;;
12171;SDS011;6149;52.418;13.668;2022-12-07T07:49:08;53.43;;;24.27;;
12171;SDS011;6149;52.418;13.668;2022-12-07T07:51:35;54.63;;;26.40;;
12171;SDS011;6149;52.418;13.668;2022-12-07T07:54:02;49.03;;;25.30;;
12171;SDS011;6149;52.418;13.668;2022-12-07T07:56:29;54.10;;;29.90;;
12171;SDS011;6149;52.418;13.668;2022-12-07T07:58:57;48.33;;;23.43;;
12171;SDS011;6149;52.418;13.668;2022-12-07T08:01:24;42.80;;;22.27;;
12171;SDS011;6149;52.418;13.668;2022-12-07T08:03:51;45.90;;;24.57;;
12171;SDS011;6149;52.418;13.668;2022-12-07T08:06:18;52.93;;;26.33;;
12171;SDS011;6149;52.418;13.668;2022-12-07T08:08:47;50.20;;;24.70;;
12171;SDS011;6149;52.418;13.668;2022-12-07T08:11:14;48.87;;;23.13;;
12171;SDS011;6149;52.418;13.668;2022-12-07T08:13:40;46.70;;;24.33;;
12171;SDS011;6149;52.418;13.668;2022-12-07T08:16:09;46.47;;;24.17;;
12171;SDS011;6149;52.418;13.668;2022-12-07T08:18:36;48.00;;;22.87;;
12171;SDS011;6149;52.418;13.668;2022-12-07T08:21:05;49.63;;;23.67;;
12171;SDS011;6149;52.418;13.668;2022-12-07T08:23:33;48.13;;;22.50;;
12171;SDS011;6149;52.418;13.668;2022-12-07T08:26:01;45.53;;;21.87;;
12171;SDS011;6149;52.418;13.668;2022-12-07T08:28:30;40.13;;;21.10;;
12171;SDS011;6149;52.418;13.668;2022-12-07T08:30:58;39.83;;;20.43;;
12171;SDS011;6149;52.418;13.668;2022-12-07T08:33:27;37.43;;;19.57;;
12171;SDS011;6149;52.418;13.668;2022-12-07T08:35:54;36.63;;;18.97;;
12171;SDS011;6149;52.418;13.668;2022-12-07T08:38:20;40.73;;;19.33;;
12171;SDS011;6149;52.418;13.668;2022-12-07T08:40:53;34.47;;;19.23;;
12171;SDS011;6149;52.418;13.668;2022-12-07T08:43:21;29.30;;;16.47;;
12171;SDS011;6149;52.418;13.668;2022-12-07T08:45:47;22.93;;;13.50;;
12171;SDS011;6149;52.418;13.668;2022-12-07T08:48:31;18.03;;;11.77;;
12171;SDS011;6149;52.418;13.668;2022-12-07T08:51:00;22.17;;;11.87;;
12171;SDS011;6149;52.418;13.668;2022-12-07T08:53:27;20.23;;;11.00;;
12171;SDS011;6149;52.418;13.668;2022-12-07T08:55:55;16.43;;;10.00;;
12171;SDS011;6149;52.418;13.668;2022-12-07T08:58:23;13.33;;;8.47;;
12171;SDS011;6149;52.418;13.668;2022-12-07T09:00:49;11.30;;;7.27;;
12171;SDS011;6149;52.418;13.668;2022-12-07T09:03:16;10.00;;;6.30;;
12171;SDS011;6149;52.418;13.668;2022-12-07T09:05:44;10.20;;;7.00;;
12171;SDS011;6149;52.418;13.668;2022-12-07T09:08:10;7.50;;;5.30;;
12171;SDS011;6149;52.418;13.668;2022-12-07T09:10:38;7.83;;;4.57;;
12171;SDS011;6149;52.418;13.668;2022-12-07T09:13:05;7.53;;;4.60;;
12171;SDS011;6149;52.418;13.668;2022-12-07T09:15:32;3.53;;;3.13;;
12171;SDS011;6149;52.418;13.668;2022-12-07T09:17:59;4.03;;;2.97;;
12171;SDS011;6149;52.418;13.668;2022-12-07T09:20:26;5.03;;;3.00;;
12171;SDS011;6149;52.418;13.668;2022-12-07T09:22:54;3.67;;;2.80;;
12171;SDS011;6149;52.418;13.668;2022-12-07T09:25:21;4.77;;;3.13;;
12171;SDS011;6149;52.418;13.668;2022-12-07T09:27:48;6.33;;;3.10;;
12171;SDS011;6149;52.418;13.668;2022-12-07T09:30:21;3.53;;;2.70;;
12171;SDS011;6149;52.418;13.668;2022-12-07T09:32:48;5.50;;;2.73;;
12171;SDS011;6149;52.418;13.668;2022-12-07T09:35:14;4.47;;;2.30;;
12171;SDS011;6149;52.418;13.668;2022-12-07T09:37:41;2.17;;;1.90;;
12171;SDS011;6149;52.418;13.668;2022-12-07T09:40:09;2.03;;;1.80;;
12171;SDS011;6149;52.418;13.668;2022-12-07T09:42:37;3.00;;;1.50;;
12171;SDS011;6149;52.418;13.668;2022-12-07T09:45:06;1.73;;;1.50;;
12171;SDS011;6149;52.418;13.668;2022-12-07T09:47:38;2.03;;;1.60;;
12171;SDS011;6149;52.418;13.668;2022-12-07T09:50:06;3.17;;;1.90;;
12171;SDS011;6149;52.418;13.668;2022-12-07T09:52:39;2.33;;;2.13;;
12171;SDS011;6149;52.418;13.668;2022-12-07T09:55:10;2.80;;;2.00;;
12171;SDS011;6149;52.418;13.668;2022-12-07T09:57:40;2.33;;;2.13;;
12171;SDS011;6149;52.418;13.668;2022-12-07T10:00:10;3.77;;;2.30;;
12171;SDS011;6149;52.418;13.668;2022-12-07T10:02:42;5.60;;;2.70;;
12171;SDS011;6149;52.418;13.668;2022-12-07T10:05:12;6.13;;;2.80;;
12171;SDS011;6149;52.418;13.668;2022-12-07T10:07:43;3.43;;;2.67;;
12171;SDS011;6149;52.418;13.668;2022-12-07T10:10:15;3.83;;;2.57;;
12171;SDS011;6149;52.418;13.668;2022-12-07T10:12:52;6.07;;;3.07;;
12171;SDS011;6149;52.418;13.668;2022-12-07T10:15:40;3.07;;;2.77;;
12171;SDS011;6149;52.418;13.668;2022-12-07T10:18:28;2.53;;;2.33;;
12171;SDS011;6149;52.418;13.668;2022-12-07T10:21:01;2.97;;;2.10;;
12171;SDS011;6149;52.418;13.668;2022-12-07T10:23:38;2.17;;;1.87;;
12171;SDS011;6149;52.418;13.668;2022-12-07T10:28:56;3.87;;;1.77;;
12171;SDS011;6149;52.418;13.668;2022-12-07T10:31:26;2.00;;;1.80;;
12171;SDS011;6149;52.418;13.668;2022-12-07T10:33:53;3.23;;;2.10;;
12171;SDS011;6149;52.418;13.668;2022-12-07T10:36:22;4.13;;;2.30;;
12171;SDS011;6149;52.418;13.668;2022-12-07T10:38:52;2.40;;;2.10;;
12171;SDS011;6149;52.418;13.668;2022-12-07T10:41:25;3.23;;;2.77;;
12171;SDS011;6149;52.418;13.668;2022-12-07T10:43:54;4.93;;;3.00;;
12171;SDS011;6149;52.418;13.668;2022-12-07T10:46:37;3.10;;;2.80;;
12171;SDS011;6149;52.418;13.668;2022-12-07T10:49:25;4.43;;;2.73;;
12171;SDS011;6149;52.418;13.668;2022-12-07T10:55:54;4.03;;;3.07;;
12171;SDS011;6149;52.418;13.668;2022-12-07T10:58:32;4.60;;;3.27;;
12171;SDS011;6149;52.418;13.668;2022-12-07T11:01:21;3.73;;;2.67;;
12171;SDS011;6149;52.418;13.668;2022-12-07T11:03:55;4.50;;;3.13;;
12171;SDS011;6149;52.418;13.668;2022-12-07T11:06:49;3.20;;;2.90;;
12171;SDS011;6149;52.418;13.668;2022-12-07T11:09:32;5.73;;;2.87;;
12171;SDS011;6149;52.418;13.668;2022-12-07T11:12:19;2.93;;;2.50;;
12171;SDS011;6149;52.418;13.668;2022-12-07T11:14:56;4.80;;;2.70;;
12171;SDS011;6149;52.418;13.668;2022-12-07T11:17:35;2.60;;;2.40;;
12171;SDS011;6149;52.418;13.668;2022-12-07T11:20:12;2.63;;;2.40;;
12171;SDS011;6149;52.418;13.668;2022-12-07T11:22:55;4.87;;;2.50;;
12171;SDS011;6149;52.418;13.668;2022-12-07T11:25:32;4.73;;;2.43;;
12171;SDS011;6149;52.418;13.668;2022-12-07T11:28:13;3.07;;;2.60;;
12171;SDS011;6149;52.418;13.668;2022-12-07T11:30:55;3.53;;;2.40;;
12171;SDS011;6149;52.418;13.668;2022-12-07T11:33:33;3.83;;;2.80;;
12171;SDS011;6149;52.418;13.668;2022-12-07T11:36:11;2.87;;;2.57;;
12171;SDS011;6149;52.418;13.668;2022-12-07T11:38:57;5.53;;;3.13;;
12171;SDS011;6149;52.418;13.668;2022-12-07T11:41:29;7.03;;;3.03;;
12171;SDS011;6149;52.418;13.668;2022-12-07T11:44:02;4.77;;;2.80;;
12171;SDS011;6149;52.418;13.668;2022-12-07T11:46:38;4.03;;;3.37;;
12171;SDS011;6149;52.418;13.668;2022-12-07T11:49:17;3.77;;;2.63;;
12171;SDS011;6149;52.418;13.668;2022-12-07T11:51:54;5.50;;;2.77;;
12171;SDS011;6149;52.418;13.668;2022-12-07T11:54:25;2.43;;;2.20;;
12171;SDS011;6149;52.418;13.668;2022-12-07T11:56:56;5.03;;;2.87;;
12171;SDS011;6149;52.418;13.668;2022-12-07T11:59:31;4.23;;;3.10;;
12171;SDS011;6149;52.418;13.668;2022-12-07T12:02:10;4.30;;;3.23;;
12171;SDS011;6149;52.418;13.668;2022-12-07T12:04:46;5.13;;;3.37;;
12171;SDS011;6149;52.418;13.668;2022-12-07T12:07:21;4.63;;;3.17;;
12171;SDS011;6149;52.418;13.668;2022-12-07T12:09:53;4.40;;;3.50;;
12171;SDS011;6149;52.418;13.668;2022-12-07T12:12:38;4.40;;;3.43;;
12171;SDS011;6149;52.418;13.668;2022-12-07T12:15:38;5.70;;;3.70;;
12171;SDS011;6149;52.418;13.668;2022-12-07T12:21:21;5.13;;;3.63;;
12171;SDS011;6149;52.418;13.668;2022-12-07T12:23:55;4.53;;;3.13;;
12171;SDS011;6149;52.418;13.668;2022-12-07T12:26:26;5.97;;;3.40;;
12171;SDS011;6149;52.418;13.668;2022-12-07T12:28:59;7.07;;;4.10;;
12171;SDS011;6149;52.418;13.668;2022-12-07T12:31:31;4.77;;;3.73;;
12171;SDS011;6149;52.418;13.668;2022-12-07T12:36:59;4.77;;;3.43;;
12171;SDS011;6149;52.418;13.668;2022-12-07T12:39:26;5.30;;;2.90;;
12171;SDS011;6149;52.418;13.668;2022-12-07T12:41:59;6.83;;;3.50;;
12171;SDS011;6149;52.418;13.668;2022-12-07T12:44:40;4.47;;;2.67;;
12171;SDS011;6149;52.418;13.668;2022-12-07T12:47:41;5.10;;;2.83;;
12171;SDS011;6149;52.418;13.668;2022-12-07T12:50:19;3.87;;;2.90;;
12171;SDS011;6149;52.418;13.668;2022-12-07T12:52:53;4.90;;;2.40;;
12171;SDS011;6149;52.418;13.668;2022-12-07T12:58:42;3.73;;;2.63;;
12171;SDS011;6149;52.418;13.668;2022-12-07T13:04:17;4.87;;;2.70;;
12171;SDS011;6149;52.418;13.668;2022-12-07T13:25:33;6.70;;;3.23;;
12171;SDS011;6149;52.418;13.668;2022-12-07T13:28:16;7.43;;;2.50;;
12171;SDS011;6149;52.418;13.668;2022-12-07T13:30:46;4.80;;;3.07;;
12171;SDS011;6149;52.418;13.668;2022-12-07T13:33:24;8.13;;;3.03;;
12171;SDS011;6149;52.418;13.668;2022-12-07T13:35:55;6.33;;;2.77;;
12171;SDS011;6149;52.418;13.668;2022-12-07T13:38:25;4.83;;;2.60;;
12171;SDS011;6149;52.418;13.668;2022-12-07T13:41:04;5.00;;;2.43;;
12171;SDS011;6149;52.418;13.668;2022-12-07T13:43:48;4.67;;;2.50;;
12171;SDS011;6149;52.418;13.668;2022-12-07T13:46:19;3.70;;;2.57;;
12171;SDS011;6149;52.418;13.668;2022-12-07T13:48:54;5.33;;;2.63;;
12171;SDS011;6149;52.418;13.668;2022-12-07T13:51:22;8.13;;;2.80;;
12171;SDS011;6149;52.418;13.668;2022-12-07T13:53:52;7.07;;;2.53;;
12171;SDS011;6149;52.418;13.668;2022-12-07T13:56:26;5.60;;;2.93;;
12171;SDS011;6149;52.418;13.668;2022-12-07T13:58:58;7.17;;;3.50;;
12171;SDS011;6149;52.418;13.668;2022-12-07T14:01:25;9.53;;;3.73;;
12171;SDS011;6149;52.418;13.668;2022-12-07T14:03:52;11.27;;;5.50;;
12171;SDS011;6149;52.418;13.668;2022-12-07T14:06:22;18.97;;;7.30;;
12171;SDS011;6149;52.418;13.668;2022-12-07T14:09:06;13.60;;;4.60;;
12171;SDS011;6149;52.418;13.668;2022-12-07T14:11:36;11.13;;;5.97;;
12171;SDS011;6149;52.418;13.668;2022-12-07T14:14:04;7.43;;;4.20;;
12171;SDS011;6149;52.418;13.668;2022-12-07T14:16:31;9.67;;;5.27;;
12171;SDS011;6149;52.418;13.668;2022-12-07T14:19:02;6.70;;;3.10;;
12171;SDS011;6149;52.418;13.668;2022-12-07T14:21:33;5.37;;;2.53;;
12171;SDS011;6149;52.418;13.668;2022-12-07T14:26:52;7.93;;;4.20;;
12171;SDS011;6149;52.418;13.668;2022-12-07T14:29:38;7.47;;;3.43;;
12171;SDS011;6149;52.418;13.668;2022-12-07T14:32:14;13.73;;;6.27;;
12171;SDS011;6149;52.418;13.668;2022-12-07T14:34:58;23.50;;;10.07;;
12171;SDS011;6149;52.418;13.668;2022-12-07T14:37:37;11.30;;;3.97;;
12171;SDS011;6149;52.418;13.668;2022-12-07T14:40:06;6.30;;;3.17;;
12171;SDS011;6149;52.418;13.668;2022-12-07T14:42:40;9.73;;;3.63;;
12171;SDS011;6149;52.418;13.668;2022-12-07T14:45:11;7.23;;;3.57;;
12171;SDS011;6149;52.418;13.668;2022-12-07T14:47:42;5.87;;;2.77;;
12171;SDS011;6149;52.418;13.668;2022-12-07T14:50:11;5.07;;;2.63;;
12171;SDS011;6149;52.418;13.668;2022-12-07T14:52:39;6.17;;;2.80;;
12171;SDS011;6149;52.418;13.668;2022-12-07T14:55:16;4.80;;;2.20;;
12171;SDS011;6149;52.418;13.668;2022-12-07T14:57:51;7.90;;;2.70;;
12171;SDS011;6149;52.418;13.668;2022-12-07T15:00:18;4.00;;;2.37;;
12171;SDS011;6149;52.418;13.668;2022-12-07T15:02:47;7.97;;;2.73;;
12171;SDS011;6149;52.418;13.668;2022-12-07T15:05:15;6.97;;;2.67;;
12171;SDS011;6149;52.418;13.668;2022-12-07T15:07:43;4.60;;;2.40;;
12171;SDS011;6149;52.418;13.668;2022-12-07T15:10:13;4.97;;;2.40;;
12171;SDS011;6149;52.418;13.668;2022-12-07T15:12:44;5.07;;;2.70;;
12171;SDS011;6149;52.418;13.668;2022-12-07T15:15:12;6.97;;;2.80;;
12171;SDS011;6149;52.418;13.668;2022-12-07T15:17:40;5.07;;;2.50;;
12171;SDS011;6149;52.418;13.668;2022-12-07T15:20:09;6.37;;;2.67;;
12171;SDS011;6149;52.418;13.668;2022-12-07T15:22:38;6.47;;;2.70;;
12171;SDS011;6149;52.418;13.668;2022-12-07T15:25:05;9.47;;;2.40;;
12171;SDS011;6149;52.418;13.668;2022-12-07T15:27:33;8.30;;;2.57;;
12171;SDS011;6149;52.418;13.668;2022-12-07T15:30:00;5.43;;;2.83;;
12171;SDS011;6149;52.418;13.668;2022-12-07T15:32:29;5.07;;;2.97;;
12171;SDS011;6149;52.418;13.668;2022-12-07T15:34:55;7.47;;;2.70;;
12171;SDS011;6149;52.418;13.668;2022-12-07T15:37:22;5.27;;;2.43;;
12171;SDS011;6149;52.418;13.668;2022-12-07T15:39:49;9.10;;;3.20;;
12171;SDS011;6149;52.418;13.668;2022-12-07T15:42:15;7.20;;;3.03;;